createdAt,value
2023-03-17T00:00:11.320Z,29.15
2023-03-17T00:04:11.299Z,30.58
2023-03-17T00:08:11.255Z,28.83
2023-03-17T00:12:11.247Z,29.15
2023-03-17T00:16:18.240Z,28.46
2023-03-17T00:20:11.147Z,29.58
2023-03-17T00:24:11.903Z,29.58
2023-03-17T00:28:11.066Z,27.98
2023-03-17T00:32:11.032Z,29.04
2023-03-17T00:36:10.995Z,31.66
2023-03-17T00:40:18.599Z,27.84
2023-03-17T00:44:11.145Z,28.84
2023-03-17T00:48:18.647Z,30.24
2023-03-17T00:52:11.038Z,27.50
2023-03-17T00:56:11.014Z,27.07
2023-03-17T01:00:10.983Z,31.96
2023-03-17T01:04:18.136Z,28.83
2023-03-17T01:08:10.886Z,28.34
2023-03-17T01:12:10.845Z,27.41
2023-03-17T01:16:10.931Z,31.31
2023-03-17T01:20:10.767Z,28.08
2023-03-17T01:24:18.153Z,29.98
2023-03-17T01:28:10.685Z,28.53
2023-03-17T01:32:10.703Z,28.27
2023-03-17T01:36:10.697Z,27.19
2023-03-17T01:40:10.592Z,32.77
2023-03-17T01:44:19.184Z,26.70
2023-03-17T01:48:10.559Z,29.01
2023-03-17T01:52:10.505Z,28.70
2023-03-17T01:56:10.498Z,30.90
2023-03-17T02:00:10.418Z,29.19
2023-03-17T02:04:10.491Z,27.48
2023-03-17T02:08:10.389Z,28.03
2023-03-17T02:12:10.357Z,29.21
2023-03-17T02:16:10.292Z,31.02
2023-03-17T02:20:10.227Z,31.89
2023-03-17T02:24:10.240Z,28.31
2023-03-17T02:28:10.170Z,27.04
2023-03-17T02:32:10.143Z,26.17
2023-03-17T02:36:10.208Z,27.09
2023-03-17T02:40:10.190Z,27.50
2023-03-17T02:44:10.385Z,31.85
2023-03-17T02:48:10.568Z,28.43
2023-03-17T02:52:10.689Z,28.10
2023-03-17T02:56:10.866Z,28.47
2023-03-17T03:00:11.018Z,27.26
2023-03-17T03:04:11.227Z,27.48
2023-03-17T03:08:11.424Z,29.85
2023-03-17T03:12:11.537Z,29.43
2023-03-17T03:16:11.720Z,27.74
2023-03-17T03:20:11.905Z,31.42
2023-03-17T03:24:12.028Z,28.03
2023-03-17T03:28:12.182Z,28.89
2023-03-17T03:32:12.368Z,29.52
2023-03-17T03:36:12.584Z,33.25
2023-03-17T03:40:12.706Z,27.45
2023-03-17T03:44:12.829Z,29.53
2023-03-17T03:48:13.026Z,28.71
2023-03-17T03:52:13.177Z,30.72
2023-03-17T03:56:13.376Z,28.08
2023-03-17T04:00:13.554Z,29.15
2023-03-17T04:04:13.711Z,28.04
2023-03-17T04:08:13.914Z,29.73
2023-03-17T04:12:14.209Z,25.00
2023-03-17T04:16:14.239Z,29.51
2023-03-17T04:20:14.409Z,29.62
2023-03-17T04:24:14.596Z,27.22
2023-03-17T04:28:15.245Z,27.89
2023-03-17T04:32:15.234Z,33.65
2023-03-17T04:36:15.189Z,30.57
2023-03-17T04:40:15.371Z,32.04
2023-03-17T04:44:15.553Z,29.62
2023-03-17T04:48:15.723Z,29.82
2023-03-17T04:52:15.959Z,28.84
2023-03-17T04:56:16.147Z,27.97
2023-03-17T05:00:16.375Z,29.57
2023-03-17T05:04:28.903Z,31.43
2023-03-17T05:08:17.512Z,31.83
2023-03-17T05:12:16.507Z,32.09
2023-03-17T05:16:16.523Z,29.27
2023-03-17T05:20:16.664Z,30.05
2023-03-17T05:24:16.851Z,27.57
2023-03-17T05:28:17.016Z,28.16
2023-03-17T05:32:17.247Z,31.47
2023-03-17T05:36:17.364Z,30.56
2023-03-17T05:40:17.541Z,31.68
2023-03-17T05:44:17.749Z,32.10
2023-03-17T05:48:17.952Z,32.06
2023-03-17T05:52:18.096Z,30.00
2023-03-17T05:56:18.320Z,28.17
2023-03-17T06:00:18.552Z,31.86
2023-03-17T06:04:18.719Z,31.12
2023-03-17T06:08:18.899Z,26.87
2023-03-17T06:12:19.123Z,24.07
2023-03-17T06:16:19.205Z,33.39
2023-03-17T06:20:19.238Z,28.44
2023-03-17T06:24:19.343Z,27.94
2023-03-17T06:28:19.413Z,26.36
2023-03-17T06:32:21.049Z,25.00
2023-03-17T06:36:19.642Z,27.80
2023-03-17T06:40:19.812Z,25.31
2023-03-17T06:44:19.916Z,42.37
2023-03-17T06:48:19.996Z,57.59
2023-03-17T06:52:20.027Z,61.21
2023-03-17T06:56:29.530Z,85.73
2023-03-17T07:00:21.233Z,26.40
2023-03-17T07:04:20.056Z,35.76
2023-03-17T07:08:20.066Z,54.02
2023-03-17T07:12:20.192Z,51.94
2023-03-17T07:16:20.244Z,58.25
2023-03-17T07:20:20.308Z,64.81
2023-03-17T07:24:20.373Z,69.19
2023-03-17T07:28:20.492Z,72.42
2023-03-17T07:32:20.548Z,75.03
2023-03-17T07:36:20.589Z,77.00
2023-03-17T07:40:20.648Z,81.08
2023-03-17T07:44:20.706Z,84.91
2023-03-17T07:48:20.842Z,86.37
2023-03-17T07:52:20.887Z,83.09
2023-03-17T07:56:20.938Z,65.19
2023-03-17T08:00:21.127Z,80.10
2023-03-17T08:04:21.167Z,85.93
2023-03-17T08:08:21.337Z,101.99
2023-03-17T08:12:21.269Z,110.59
2023-03-17T08:16:21.310Z,129.86
2023-03-17T08:20:21.221Z,139.84
2023-03-17T08:24:21.308Z,148.76
2023-03-17T08:28:21.457Z,166.08
2023-03-17T08:32:21.473Z,176.79
2023-03-17T08:36:21.547Z,179.86
2023-03-17T08:40:21.598Z,178.54
2023-03-17T08:44:21.622Z,181.18
2023-03-17T08:48:21.783Z,183.72
2023-03-17T08:52:21.789Z,172.82
2023-03-17T08:56:21.946Z,90.23
2023-03-17T09:00:22.066Z,153.53
2023-03-17T09:04:21.990Z,147.90
2023-03-17T09:10:49.598Z,25.00
2023-03-17T09:14:49.533Z,26.86
2023-03-17T09:18:49.513Z,26.98
2023-03-17T09:22:49.650Z,29.88
2023-03-17T09:26:49.566Z,33.70
2023-03-17T09:30:49.454Z,37.18
2023-03-17T09:34:51.520Z,39.52
2023-03-17T09:38:49.344Z,41.16
2023-03-17T09:42:49.370Z,19.90
2023-03-17T09:46:49.595Z,89.78
2023-03-17T09:50:49.673Z,148.77
2023-03-17T09:54:49.812Z,185.68
2023-03-17T09:58:51.346Z,183.03
2023-03-17T10:02:49.965Z,187.63
2023-03-17T10:06:50.038Z,206.29
2023-03-17T10:10:50.082Z,101.83
2023-03-17T10:14:51.357Z,81.49
2023-03-17T10:18:50.317Z,67.69
2023-03-17T10:22:50.453Z,38.90
2023-03-17T10:26:50.527Z,31.41
2023-03-17T10:30:50.659Z,29.30
2023-03-17T10:34:50.771Z,33.99
2023-03-17T10:38:50.982Z,26.74
2023-03-17T10:42:51.145Z,34.35
2023-03-17T10:46:51.624Z,58.46
2023-03-17T10:50:52.884Z,63.88
2023-03-17T10:54:51.558Z,72.22
2023-03-17T10:58:51.745Z,77.95
2023-03-17T11:02:51.757Z,82.32
2023-03-17T11:06:51.822Z,75.75
2023-03-17T11:10:52.334Z,76.48
2023-03-17T11:14:51.956Z,74.62
2023-03-17T11:18:52.010Z,73.10
2023-03-17T11:22:52.097Z,70.77
2023-03-17T11:26:52.133Z,72.66
2023-03-17T11:30:52.217Z,69.69
2023-03-17T11:34:52.292Z,71.73
2023-03-17T11:38:52.312Z,71.17
2023-03-17T11:42:52.376Z,70.37
2023-03-17T11:46:52.546Z,72.02
2023-03-17T11:50:52.563Z,71.11
2023-03-17T11:54:54.374Z,70.39
2023-03-17T11:58:52.565Z,75.21
2023-03-17T12:02:52.528Z,84.36
2023-03-17T12:06:52.488Z,93.32
2023-03-17T12:10:52.437Z,98.94
2023-03-17T12:14:52.394Z,92.40
2023-03-17T12:18:52.386Z,90.13
2023-03-17T12:22:52.310Z,91.43
2023-03-17T12:26:52.383Z,95.18
2023-03-17T12:30:52.312Z,95.02
2023-03-17T12:34:52.207Z,93.91
2023-03-17T12:38:52.216Z,91.39
2023-03-17T12:42:52.133Z,92.65
2023-03-17T12:46:52.105Z,92.11
2023-03-17T12:50:52.063Z,102.45
2023-03-17T12:54:52.017Z,76.17
2023-03-17T12:58:51.987Z,112.49
2023-03-17T13:02:52.001Z,84.96
2023-03-17T13:06:51.920Z,99.59
2023-03-17T13:10:51.922Z,105.04
2023-03-17T13:14:51.856Z,104.35
2023-03-17T13:18:51.818Z,103.12
2023-03-17T13:22:51.800Z,98.60
2023-03-17T13:26:54.327Z,95.46
2023-03-17T13:30:51.680Z,100.78
2023-03-17T13:34:51.675Z,93.23
2023-03-17T13:39:05.105Z,91.30
2023-03-17T13:42:52.599Z,92.12
2023-03-17T13:46:51.616Z,88.72
2023-03-17T13:50:51.535Z,88.97
2023-03-17T13:54:51.526Z,89.89
2023-03-17T13:58:51.434Z,88.40
2023-03-17T14:02:58.910Z,84.08
2023-03-17T14:06:51.493Z,85.96
2023-03-17T14:10:51.458Z,83.92
2023-03-17T14:14:51.415Z,82.80
2023-03-17T14:18:51.369Z,78.82
2023-03-17T14:22:58.453Z,80.80
2023-03-17T14:26:51.315Z,80.92
2023-03-17T14:30:51.300Z,79.32
2023-03-17T14:34:51.216Z,79.27
2023-03-17T14:38:51.194Z,76.70
2023-03-17T14:42:51.171Z,76.73
2023-03-17T14:46:51.104Z,76.34
2023-03-17T14:50:51.101Z,74.46
2023-03-17T14:54:51.025Z,74.82
2023-03-17T14:58:51.014Z,72.68
2023-03-17T15:02:51.101Z,70.86
2023-03-17T15:06:51.194Z,72.71
2023-03-17T15:10:51.241Z,69.95
2023-03-17T15:14:51.315Z,70.28
2023-03-17T15:18:51.422Z,70.47
2023-03-17T15:22:51.527Z,67.94
2023-03-17T15:26:51.650Z,66.84
2023-03-17T15:30:52.000Z,66.80
2023-03-17T15:34:51.821Z,66.33
2023-03-17T15:38:52.006Z,65.21
2023-03-17T15:42:52.011Z,61.83
2023-03-17T15:46:52.103Z,61.52
2023-03-17T15:50:52.262Z,61.16
2023-03-17T15:54:52.322Z,61.25
2023-03-17T15:58:52.615Z,58.10
2023-03-17T16:02:52.541Z,55.17
2023-03-17T16:06:52.676Z,56.91
2023-03-17T16:10:52.768Z,56.45
2023-03-17T16:14:52.867Z,58.37
2023-03-17T16:18:52.995Z,54.87
2023-03-17T16:22:53.043Z,51.17
2023-03-17T16:26:53.146Z,52.41
2023-03-17T16:30:53.323Z,52.92
2023-03-17T16:34:53.442Z,52.02
2023-03-17T16:38:53.519Z,50.40
2023-03-17T16:42:53.657Z,51.23
2023-03-17T16:46:53.784Z,47.95
2023-03-17T16:50:53.911Z,46.30
2023-03-17T16:54:54.044Z,47.27
2023-03-17T16:58:54.108Z,46.80
2023-03-17T17:02:54.521Z,47.25
2023-03-17T17:06:54.315Z,46.96
2023-03-17T17:10:54.399Z,44.76
2023-03-17T17:14:54.510Z,42.91
2023-03-17T17:18:54.632Z,42.10
2023-03-17T17:22:54.763Z,41.90
2023-03-17T17:26:54.845Z,42.13
2023-03-17T17:30:54.965Z,39.09
2023-03-17T17:34:55.102Z,40.83
2023-03-17T17:38:55.219Z,37.34
2023-03-17T17:43:02.512Z,38.17
2023-03-17T17:46:55.369Z,37.74
2023-03-17T17:50:55.248Z,35.54
2023-03-17T17:54:55.227Z,34.82
2023-03-17T17:58:55.201Z,32.28
2023-03-17T18:02:55.119Z,31.82
2023-03-17T18:06:55.087Z,32.85
2023-03-17T18:10:55.074Z,30.90
2023-03-17T18:15:02.571Z,28.44
2023-03-17T18:18:55.026Z,30.27
2023-03-17T18:22:55.005Z,31.30
2023-03-17T18:26:54.981Z,30.41
2023-03-17T18:30:54.948Z,27.04
2023-03-17T18:35:02.041Z,26.18
2023-03-17T18:38:54.924Z,28.72
2023-03-17T18:42:54.833Z,27.46
2023-03-17T18:46:54.801Z,26.46
2023-03-17T18:50:54.753Z,27.33
2023-03-17T18:54:54.780Z,29.71
2023-03-17T18:58:54.693Z,25.99
2023-03-17T19:02:54.725Z,28.91
2023-03-17T19:06:54.667Z,26.35
2023-03-17T19:10:54.733Z,28.97
2023-03-17T19:14:54.886Z,28.00
2023-03-17T19:18:54.977Z,26.81
2023-03-17T19:22:55.058Z,26.58
2023-03-17T19:26:55.157Z,28.39
2023-03-17T19:30:55.256Z,31.72
2023-03-17T19:34:55.388Z,30.16
2023-03-17T19:38:55.447Z,27.27
2023-03-17T19:42:55.583Z,28.54
2023-03-17T19:46:55.684Z,28.17
2023-03-17T19:50:55.768Z,29.19
2023-03-17T19:54:55.898Z,28.84
2023-03-17T19:58:55.979Z,29.84
2023-03-17T20:02:56.117Z,27.20
2023-03-17T20:06:56.232Z,28.75
2023-03-17T20:10:56.352Z,27.00
2023-03-17T20:14:56.442Z,26.76
2023-03-17T20:18:56.580Z,27.19
2023-03-17T20:22:56.642Z,27.01
2023-03-17T20:26:56.782Z,26.49
2023-03-17T20:30:56.905Z,25.06
2023-03-17T20:34:56.955Z,28.61
2023-03-17T20:38:57.076Z,27.18
2023-03-17T20:42:57.165Z,26.87
2023-03-17T20:46:57.257Z,28.47
2023-03-17T20:50:57.350Z,26.10
2023-03-17T20:54:57.443Z,30.67
2023-03-17T20:58:57.577Z,25.26
2023-03-17T21:02:57.706Z,27.16
2023-03-17T21:06:57.837Z,29.94
2023-03-17T21:10:57.916Z,28.16
2023-03-17T21:14:58.034Z,28.20
2023-03-17T21:18:58.182Z,33.11
2023-03-17T21:22:58.305Z,27.83
2023-03-17T21:26:58.374Z,29.92
2023-03-17T21:30:58.504Z,29.14
2023-03-17T21:34:58.644Z,28.30
2023-03-17T21:38:58.779Z,26.82
2023-03-17T21:42:59.129Z,32.35
2023-03-17T21:46:59.028Z,25.12
2023-03-17T21:50:59.174Z,26.88
2023-03-17T21:54:59.309Z,28.56
2023-03-17T21:58:59.460Z,27.11
2023-03-17T22:03:07.176Z,27.24
2023-03-17T22:06:59.551Z,28.17
2023-03-17T22:10:59.524Z,27.23
2023-03-17T22:14:59.458Z,26.52
2023-03-17T22:18:59.477Z,26.96
2023-03-17T22:22:59.427Z,28.69
2023-03-17T22:26:59.549Z,28.21
2023-03-17T22:30:59.680Z,29.50
2023-03-17T22:34:59.791Z,28.66
2023-03-17T22:38:59.920Z,28.40
2023-03-17T22:43:00.037Z,25.17
2023-03-17T22:47:00.203Z,25.83
2023-03-17T22:51:00.334Z,31.04
2023-03-17T22:55:00.476Z,29.45
2023-03-17T22:59:00.666Z,27.56
2023-03-17T23:03:00.761Z,27.86
2023-03-17T23:07:00.936Z,26.49
2023-03-17T23:11:01.108Z,27.22
2023-03-17T23:15:01.212Z,26.01
2023-03-17T23:19:01.288Z,29.47
2023-03-17T23:23:01.460Z,26.60
2023-03-17T23:27:01.609Z,25.64
2023-03-17T23:31:01.742Z,28.69
2023-03-17T23:35:01.894Z,28.27
2023-03-17T23:39:02.004Z,28.07
2023-03-17T23:43:02.141Z,27.48
2023-03-17T23:47:09.288Z,26.62
2023-03-17T23:51:02.230Z,29.33
2023-03-17T23:55:02.201Z,30.60
2023-03-17T23:59:02.208Z,28.92
